This is the latest recevied weather packets stored in our database for station/object TG9SRP-22. If no packets are shown the sender has not sent any weather packets the latest 10 day(s).
| Time | Temp. | Humidity | Pressure | Rain* | Wind** | Luminosity | Snow |
|---|---|---|---|---|---|---|---|
| 1777886307 | 14.44° C | 91% | 1015 hPa | 0 mm | - | - | - |
| 1777885707 | 15.56° C | 90% | 1015 hPa | 0 mm | - | - | - |
| 1777885106 | 12.78° C | 93% | 1015 hPa | 0 mm | - | - | - |
| 1777884506 | 13.89° C | 92% | 1015 hPa | 0 mm | - | - | - |
| 1777883905 | 13.33° C | 91% | 1015 hPa | 0 mm | - | - | - |
| 1777883305 | 14.44° C | 91% | 1015 hPa | 0 mm | - | - | - |
| 1777882704 | 15.56° C | 90% | 1016 hPa | 0 mm | - | - | - |
| 1777882104 | 12.22° C | 10% | - | 0 mm | - | - | - |
| 1777881503 | 12.22° C | 10% | - | 0 mm | - | - | - |
| 1777880903 | 13.33° C | 10% | - | 0 mm | - | - | - |
| 1777880302 | 12.78° C | 91% | 1016 hPa | 0 mm | - | - | - |
| 1777879701 | 13.89° C | 90% | 1016 hPa | 0 mm | - | - | - |
| 1777879101 | 15° C | 88% | 1016 hPa | 0 mm | - | - | - |
| 1777878501 | 12.22° C | 91% | 1016 hPa | 0 mm | - | - | - |
| 1777877900 | 13.33° C | 90% | 1016 hPa | 0 mm | - | - | - |
| 1777877299 | 13.89° C | 89% | 1016 hPa | 0 mm | - | - | - |
| 1777876699 | 15° C | 88% | 1017 hPa | 0 mm | - | - | - |
| 1777876098 | 16.11° C | 86% | 1017 hPa | 0 mm | - | - | - |
| 1777875498 | 13.33° C | 92% | 1017 hPa | 0 mm | - | - | - |
| 1777874897 | 14.44° C | 91% | 1017 hPa | 0 mm | - | - | - |
| 1777874296 | 15.56° C | 88% | 1017 hPa | 0 mm | - | - | - |
| 1777873696 | 12.78° C | 86% | 1017 hPa | 0 mm | - | - | - |
| 1777873095 | 13.89° C | 84% | 1017 hPa | 0 mm | - | - | - |
| 1777872495 | 15° C | 81% | 1018 hPa | 0 mm | - | - | - |
| 1777871894 | 16.11° C | 78% | 1018 hPa | 0 mm | - | - | - |
* Rain latest hour (hover to see other rain measurements)
** Current wind speed in m/s (hover to see current wind gust speed)